Queen Of Nanaimo — VCNX — position and weather

sailwx.info

Track history (hours):
 
Tides and Currents Weather Stations Pressure Air Temp Water Temp Dewpoint Dewpoint Depression Visibility Wind Speed Wind Dir Waves Ship Positions

Queen Of Nanaimo

Last reported at 2017-Jan-20 05:31 UTC. Time now 2017-Jan-20 05:53 UTC.
Position N 48°48' W 123°19'.

Length 130 m; draft 4 m.

Type: Passenger vessel. MMSI: 316001254.

Date/timePositionNaut miles runAvg speedWind from/ knotsBaromVisibWave heightAir tempDewpointWater temp
2017-Jan-20 05:31N 48°48' W 123°19'5 4.8
2017-Jan-20 04:33N 48°53' W 123°18'10 9.5
2017-Jan-20 03:33N 48°60' W 123°09'1 1.0
2017-Jan-20 02:33N 49°00' W 123°08'1110.8
2017-Jan-20 01:33N 48°53' W 123°19'2 1.8
2017-Jan-20 00:29N 48°51' W 123°20'3 3.6
2017-Jan-19 23:33N 48°49' W 123°24'3 1.3
2017-Jan-19 21:26N 48°51' W 123°27'6 6.6
2017-Jan-19 20:33N 48°48' W 123°19'3 3.2
2017-Jan-19 19:33N 48°51' W 123°21'8 8.2
2017-Jan-19 18:33N 48°57' W 123°13'5 4.5
2017-Jan-19 17:33N 49°00' W 123°08'9 9.5
2017-Jan-19 16:33N 48°53' W 123°17'3 3.0
2017-Jan-19 15:33N 48°51' W 123°20'3 3.5
2017-Jan-19 14:34N 48°49' W 123°24'2 0.3
2017-Jan-19 06:11N 48°51' W 123°26'6 8.4
2017-Jan-19 05:31N 48°48' W 123°19'4 4.4
2017-Jan-19 04:33N 48°52' W 123°18'9 9.0
2017-Jan-19 03:33N 48°59' W 123°10'2 1.8
2017-Jan-19 02:33N 49°00' W 123°08'1110.6
2017-Jan-19 01:33N 48°53' W 123°19'2 1.8
2017-Jan-19 00:27N 48°51' W 123°20'3 3.7
2017-Jan-18 23:33N 48°49' W 123°24'2 1.1
2017-Jan-18 21:29N 48°51' W 123°27'6 6.2
2017-Jan-18 20:32N 48°48' W 123°19'4 3.8
2017-Jan-18 19:33N 48°52' W 123°21'8 8.3
2017-Jan-18 18:33N 48°58' W 123°13'4 4.2
2017-Jan-18 17:33N 49°00' W 123°08'9 9.5
2017-Jan-18 16:33N 48°53' W 123°17'3 3.0
2017-Jan-18 15:32N 48°51' W 123°20'3 3.4
2017-Jan-18 14:33N 48°49' W 123°24'2 0.3
2017-Jan-18 06:19N 48°51' W 123°27'6 6.8
2017-Jan-18 05:26N 48°48' W 123°19'4 4.2
2017-Jan-18 04:33N 48°52' W 123°19'9 9.1
2017-Jan-18 03:33N 48°59' W 123°10'2 2.2
2017-Jan-18 02:33N 49°00' W 123°08'1110.6
2017-Jan-18 01:33N 48°53' W 123°19'2 1.7
2017-Jan-18 00:22N 48°51' W 123°20'3 3.8
2017-Jan-17 23:33N 48°49' W 123°24'3 1.3
2017-Jan-17 21:07N 48°51' W 123°27'610.2
2017-Jan-17 20:33N 48°48' W 123°19'3 3.3
2017-Jan-17 19:33N 48°51' W 123°21'8 8.2
2017-Jan-17 18:33N 48°58' W 123°13'4 4.3
2017-Jan-17 17:33N 49°00' W 123°08'9 9.5
2017-Jan-17 16:33N 48°53' W 123°17'3 3.0
2017-Jan-17 15:33N 48°51' W 123°20'3 3.2
2017-Jan-17 14:33N 48°49' W 123°24'3 0.4
2017-Jan-17 06:27N 48°51' W 123°27'6 6.0
2017-Jan-17 05:27N 48°48' W 123°19'4 3.9
2017-Jan-17 04:34N 48°52' W 123°19'9 9.0
2017-Jan-17 03:33N 48°59' W 123°10'2 2.5
2017-Jan-17 02:33N 49°00' W 123°08'1110.6
2017-Jan-17 01:33N 48°53' W 123°19'2 1.7
2017-Jan-17 00:24N 48°51' W 123°20'3 3.8
2017-Jan-16 23:33N 48°49' W 123°24'3 2.8
2017-Jan-16 22:33N 48°51' W 123°27'0 0.0
2017-Jan-16 21:08N 48°51' W 123°27'610.1
2017-Jan-16 20:33N 48°48' W 123°19'3 3.3
2017-Jan-16 19:33N 48°51' W 123°21'8 7.7
2017-Jan-16 18:33N 48°57' W 123°13'5 4.9
2017-Jan-16 17:33N 49°00' W 123°08'10 9.6
2017-Jan-16 16:33N 48°53' W 123°18'2 0.2
2017-Jan-16 06:24N 48°52' W 123°19'1213.7
2017-Jan-16 05:33N 49°00' W 123°08'9 9.4
2017-Jan-16 04:33N 48°53' W 123°17'2 2.0
2017-Jan-16 03:30N 48°52' W 123°19'1112.1
2017-Jan-16 02:33N 49°00' W 123°08'5 4.9
2017-Jan-16 01:33N 48°56' W 123°12'10 2.4
2017-Jan-15 21:32N 48°48' W 123°19'4 3.2
2017-Jan-15 20:22N 48°52' W 123°19'7 8.1
2017-Jan-15 19:33N 48°57' W 123°13'5 4.6
2017-Jan-15 18:34N 49°00' W 123°08'10 9.6
2017-Jan-15 17:33N 48°53' W 123°17'5 3.8
2017-Jan-15 16:09N 48°48' W 123°19'4 0.4
2017-Jan-15 06:11N 48°52' W 123°19'710.3
2017-Jan-15 05:33N 48°57' W 123°13'5 4.9
2017-Jan-15 04:33N 49°00' W 123°08'0 0.0
2017-Jan-15 03:33N 49°00' W 123°08'0 0.1
2017-Jan-15 02:33N 49°00' W 123°08'10 9.6
2017-Jan-15 01:28N 48°53' W 123°19'4 4.6
2017-Jan-15 00:30N 48°48' W 123°20'4 1.0
2017-Jan-14 21:05N 48°52' W 123°19'714.3
2017-Jan-14 20:33N 48°58' W 123°12'1 1.5
2017-Jan-14 19:33N 48°58' W 123°10'8 3.7
2017-Jan-14 17:28N 48°53' W 123°19'1111.7
2017-Jan-14 16:34N 49°00' W 123°08'5 4.8
2017-Jan-14 15:33N 48°56' W 123°12'10 1.0
2017-Jan-14 05:25N 48°48' W 123°19'5 4.2
2017-Jan-14 04:20N 48°53' W 123°18'810.6
2017-Jan-14 03:33N 48°59' W 123°10'12 1.7
2017-Jan-13 20:33N 48°48' W 123°19'4 3.2
2017-Jan-13 19:23N 48°52' W 123°19'6 7.8
2017-Jan-13 18:33N 48°57' W 123°13'5 5.0
2017-Jan-13 17:33N 49°00' W 123°08'9 9.4
2017-Jan-13 16:33N 48°53' W 123°17'6 4.1
2017-Jan-13 15:11N 48°48' W 123°20'1 0.1
2017-Jan-13 05:28N 48°48' W 123°19'5 5.0
2017-Jan-13 04:34N 48°53' W 123°19'10 9.8
2017-Jan-13 03:34N 48°60' W 123°09'1 0.9
2017-Jan-13 02:33N 49°00' W 123°08'11 8.8
2017-Jan-13 01:21N 48°53' W 123°19'5 1.0
2017-Jan-12 20:31N 48°48' W 123°19'4 3.3
2017-Jan-12 19:23N 48°52' W 123°19'7 8.4
2017-Jan-12 18:33N 48°57' W 123°13'5 4.5
2017-Jan-12 17:33N 49°00' W 123°08'1010.1
2017-Jan-12 16:32N 48°53' W 123°18'5 3.5
2017-Jan-12 15:10N 48°48' W 123°19'0 0.0
2017-Jan-12 05:29N 48°48' W 123°19'4 4.0
2017-Jan-12 04:34N 48°52' W 123°19'9 9.0
2017-Jan-12 03:33N 48°59' W 123°10'2 2.3
2017-Jan-12 02:34N 49°00' W 123°08'11 8.8
2017-Jan-12 01:21N 48°53' W 123°19'5 3.9
2017-Jan-12 00:12N 48°48' W 123°20'0 0.1
2017-Jan-11 20:32N 48°48' W 123°19'4 3.4
2017-Jan-11 19:27N 48°52' W 123°19'8 9.0
2017-Jan-11 18:33N 48°59' W 123°13'4 3.9
2017-Jan-11 17:33N 49°00' W 123°08'10 9.8
2017-Jan-11 16:32N 48°53' W 123°18'5 3.7
2017-Jan-11 15:11N 48°48' W 123°20'1 0.1
2017-Jan-11 05:29N 48°48' W 123°19'5 5.0
2017-Jan-11 04:34N 48°53' W 123°18'9 8.5
2017-Jan-11 03:33N 48°59' W 123°10'2 1.9
2017-Jan-11 02:33N 49°00' W 123°08'11 8.6
2017-Jan-11 01:17N 48°52' W 123°18'4 3.5
2017-Jan-11 00:08N 48°48' W 123°19'0 0.1
2017-Jan-10 20:14N 48°48' W 123°19'5 4.9
2017-Jan-10 19:17N 48°53' W 123°18'7 8.6
2017-Jan-10 18:31N 48°58' W 123°12'4 3.9
2017-Jan-10 17:32N 49°00' W 123°08'10 9.8
2017-Jan-10 16:33N 48°53' W 123°17'5 0.5
2017-Jan-10 05:32N 48°48' W 123°19'  
Track history (hours):
 
Tides and Currents Weather Stations Pressure Air Temp Water Temp Dewpoint Dewpoint Depression Visibility Wind Speed Wind Dir Waves Ship Positions

Queen Of Nanaimo

Last reported at 2017-Jan-20 05:31 UTC. Time now 2017-Jan-20 05:53 UTC.
Position N 48°48' W 123°19'.

Length 130 m; draft 4 m.

Type: Passenger vessel. MMSI: 316001254.

Date/timePositionNaut miles runAvg speedWind from/ knotsBaromVisibWave heightAir tempDewpointWater temp
2017-Jan-20 05:31N 48°48' W 123°19'5 4.8
2017-Jan-20 04:33N 48°53' W 123°18'10 9.5
2017-Jan-20 03:33N 48°60' W 123°09'1 1.0
2017-Jan-20 02:33N 49°00' W 123°08'1110.8
2017-Jan-20 01:33N 48°53' W 123°19'2 1.8
2017-Jan-20 00:29N 48°51' W 123°20'3 3.6
2017-Jan-19 23:33N 48°49' W 123°24'3 1.3
2017-Jan-19 21:26N 48°51' W 123°27'6 6.6
2017-Jan-19 20:33N 48°48' W 123°19'3 3.2
2017-Jan-19 19:33N 48°51' W 123°21'8 8.2
2017-Jan-19 18:33N 48°57' W 123°13'5 4.5
2017-Jan-19 17:33N 49°00' W 123°08'9 9.5
2017-Jan-19 16:33N 48°53' W 123°17'3 3.0
2017-Jan-19 15:33N 48°51' W 123°20'3 3.5
2017-Jan-19 14:34N 48°49' W 123°24'2 0.3
2017-Jan-19 06:11N 48°51' W 123°26'6 8.4
2017-Jan-19 05:31N 48°48' W 123°19'4 4.4
2017-Jan-19 04:33N 48°52' W 123°18'9 9.0
2017-Jan-19 03:33N 48°59' W 123°10'2 1.8
2017-Jan-19 02:33N 49°00' W 123°08'1110.6
2017-Jan-19 01:33N 48°53' W 123°19'2 1.8
2017-Jan-19 00:27N 48°51' W 123°20'3 3.7
2017-Jan-18 23:33N 48°49' W 123°24'2 1.1
2017-Jan-18 21:29N 48°51' W 123°27'6 6.2
2017-Jan-18 20:32N 48°48' W 123°19'4 3.8
2017-Jan-18 19:33N 48°52' W 123°21'8 8.3
2017-Jan-18 18:33N 48°58' W 123°13'4 4.2
2017-Jan-18 17:33N 49°00' W 123°08'9 9.5
2017-Jan-18 16:33N 48°53' W 123°17'3 3.0
2017-Jan-18 15:32N 48°51' W 123°20'3 3.4
2017-Jan-18 14:33N 48°49' W 123°24'2 0.3
2017-Jan-18 06:19N 48°51' W 123°27'6 6.8
2017-Jan-18 05:26N 48°48' W 123°19'4 4.2
2017-Jan-18 04:33N 48°52' W 123°19'9 9.1
2017-Jan-18 03:33N 48°59' W 123°10'2 2.2
2017-Jan-18 02:33N 49°00' W 123°08'1110.6
2017-Jan-18 01:33N 48°53' W 123°19'2 1.7
2017-Jan-18 00:22N 48°51' W 123°20'3 3.8
2017-Jan-17 23:33N 48°49' W 123°24'3 1.3
2017-Jan-17 21:07N 48°51' W 123°27'610.2
2017-Jan-17 20:33N 48°48' W 123°19'3 3.3
2017-Jan-17 19:33N 48°51' W 123°21'8 8.2
2017-Jan-17 18:33N 48°58' W 123°13'4 4.3
2017-Jan-17 17:33N 49°00' W 123°08'9 9.5
2017-Jan-17 16:33N 48°53' W 123°17'3 3.0
2017-Jan-17 15:33N 48°51' W 123°20'3 3.2
2017-Jan-17 14:33N 48°49' W 123°24'3 0.4
2017-Jan-17 06:27N 48°51' W 123°27'6 6.0
2017-Jan-17 05:27N 48°48' W 123°19'4 3.9
2017-Jan-17 04:34N 48°52' W 123°19'9 9.0
2017-Jan-17 03:33N 48°59' W 123°10'2 2.5
2017-Jan-17 02:33N 49°00' W 123°08'1110.6
2017-Jan-17 01:33N 48°53' W 123°19'2 1.7
2017-Jan-17 00:24N 48°51' W 123°20'3 3.8
2017-Jan-16 23:33N 48°49' W 123°24'3 2.8
2017-Jan-16 22:33N 48°51' W 123°27'0 0.0
2017-Jan-16 21:08N 48°51' W 123°27'610.1
2017-Jan-16 20:33N 48°48' W 123°19'3 3.3
2017-Jan-16 19:33N 48°51' W 123°21'8 7.7
2017-Jan-16 18:33N 48°57' W 123°13'5 4.9
2017-Jan-16 17:33N 49°00' W 123°08'10 9.6
2017-Jan-16 16:33N 48°53' W 123°18'2 0.2
2017-Jan-16 06:24N 48°52' W 123°19'1213.7
2017-Jan-16 05:33N 49°00' W 123°08'9 9.4
2017-Jan-16 04:33N 48°53' W 123°17'2 2.0
2017-Jan-16 03:30N 48°52' W 123°19'1112.1
2017-Jan-16 02:33N 49°00' W 123°08'5 4.9
2017-Jan-16 01:33N 48°56' W 123°12'10 2.4
2017-Jan-15 21:32N 48°48' W 123°19'4 3.2
2017-Jan-15 20:22N 48°52' W 123°19'7 8.1
2017-Jan-15 19:33N 48°57' W 123°13'5 4.6
2017-Jan-15 18:34N 49°00' W 123°08'10 9.6
2017-Jan-15 17:33N 48°53' W 123°17'5 3.8
2017-Jan-15 16:09N 48°48' W 123°19'4 0.4
2017-Jan-15 06:11N 48°52' W 123°19'710.3
2017-Jan-15 05:33N 48°57' W 123°13'5 4.9
2017-Jan-15 04:33N 49°00' W 123°08'0 0.0
2017-Jan-15 03:33N 49°00' W 123°08'0 0.1
2017-Jan-15 02:33N 49°00' W 123°08'10 9.6
2017-Jan-15 01:28N 48°53' W 123°19'4 4.6
2017-Jan-15 00:30N 48°48' W 123°20'4 1.0
2017-Jan-14 21:05N 48°52' W 123°19'714.3
2017-Jan-14 20:33N 48°58' W 123°12'1 1.5
2017-Jan-14 19:33N 48°58' W 123°10'8 3.7
2017-Jan-14 17:28N 48°53' W 123°19'1111.7
2017-Jan-14 16:34N 49°00' W 123°08'5 4.8
2017-Jan-14 15:33N 48°56' W 123°12'10 1.0
2017-Jan-14 05:25N 48°48' W 123°19'5 4.2
2017-Jan-14 04:20N 48°53' W 123°18'810.6
2017-Jan-14 03:33N 48°59' W 123°10'12 1.7
2017-Jan-13 20:33N 48°48' W 123°19'4 3.2
2017-Jan-13 19:23N 48°52' W 123°19'6 7.8
2017-Jan-13 18:33N 48°57' W 123°13'5 5.0
2017-Jan-13 17:33N 49°00' W 123°08'9 9.4
2017-Jan-13 16:33N 48°53' W 123°17'6 4.1
2017-Jan-13 15:11N 48°48' W 123°20'1 0.1
2017-Jan-13 05:28N 48°48' W 123°19'5 5.0
2017-Jan-13 04:34N 48°53' W 123°19'10 9.8
2017-Jan-13 03:34N 48°60' W 123°09'1 0.9
2017-Jan-13 02:33N 49°00' W 123°08'11 8.8
2017-Jan-13 01:21N 48°53' W 123°19'5 1.0
2017-Jan-12 20:31N 48°48' W 123°19'4 3.3
2017-Jan-12 19:23N 48°52' W 123°19'7 8.4
2017-Jan-12 18:33N 48°57' W 123°13'5 4.5
2017-Jan-12 17:33N 49°00' W 123°08'1010.1
2017-Jan-12 16:32N 48°53' W 123°18'5 3.5
2017-Jan-12 15:10N 48°48' W 123°19'0 0.0
2017-Jan-12 05:29N 48°48' W 123°19'4 4.0
2017-Jan-12 04:34N 48°52' W 123°19'9 9.0
2017-Jan-12 03:33N 48°59' W 123°10'2 2.3
2017-Jan-12 02:34N 49°00' W 123°08'11 8.8
2017-Jan-12 01:21N 48°53' W 123°19'5 3.9
2017-Jan-12 00:12N 48°48' W 123°20'0 0.1
2017-Jan-11 20:32N 48°48' W 123°19'4 3.4
2017-Jan-11 19:27N 48°52' W 123°19'8 9.0
2017-Jan-11 18:33N 48°59' W 123°13'4 3.9
2017-Jan-11 17:33N 49°00' W 123°08'10 9.8
2017-Jan-11 16:32N 48°53' W 123°18'5 3.7
2017-Jan-11 15:11N 48°48' W 123°20'1 0.1
2017-Jan-11 05:29N 48°48' W 123°19'5 5.0
2017-Jan-11 04:34N 48°53' W 123°18'9 8.5
2017-Jan-11 03:33N 48°59' W 123°10'2 1.9
2017-Jan-11 02:33N 49°00' W 123°08'11 8.6
2017-Jan-11 01:17N 48°52' W 123°18'4 3.5
2017-Jan-11 00:08N 48°48' W 123°19'0 0.1
2017-Jan-10 20:14N 48°48' W 123°19'5 4.9
2017-Jan-10 19:17N 48°53' W 123°18'7 8.6
2017-Jan-10 18:31N 48°58' W 123°12'4 3.9
2017-Jan-10 17:32N 49°00' W 123°08'10 9.8
2017-Jan-10 16:33N 48°53' W 123°17'5 0.5
2017-Jan-10 05:32N 48°48' W 123°19'  

Dump ship's entire track history